createdAt,value
2023-08-24T00:01:15.328Z,5.38
2023-08-24T00:03:41.690Z,5.07
2023-08-24T00:06:08.029Z,5.40
2023-08-24T00:08:34.381Z,5.15
2023-08-24T00:11:01.425Z,4.57
2023-08-24T00:13:27.791Z,5.15
2023-08-24T00:15:54.919Z,4.75
2023-08-24T00:18:23.093Z,4.53
2023-08-24T00:20:49.863Z,4.90
2023-08-24T00:23:16.257Z,4.72
2023-08-24T00:25:42.627Z,4.68
2023-08-24T00:28:09.105Z,5.32
2023-08-24T00:30:35.616Z,4.68
2023-08-24T00:33:02.055Z,4.82
2023-08-24T00:35:28.484Z,5.38
2023-08-24T00:37:55.029Z,5.80
2023-08-24T00:40:21.388Z,5.45
2023-08-24T00:42:47.787Z,5.18
2023-08-24T00:45:14.863Z,4.55
2023-08-24T00:47:45.577Z,5.10
2023-08-24T00:50:12.975Z,5.03
2023-08-24T00:52:40.470Z,5.05
2023-08-24T00:55:07.258Z,5.25
2023-08-24T00:57:33.819Z,6.13
2023-08-24T01:00:01.896Z,5.07
2023-08-24T01:02:28.624Z,5.68
2023-08-24T01:04:55.069Z,6.30
2023-08-24T01:07:21.995Z,5.63
2023-08-24T01:09:48.725Z,5.50
2023-08-24T01:12:25.218Z,5.70
2023-08-24T01:14:55.048Z,5.50
2023-08-24T01:17:23.729Z,5.35
2023-08-24T01:19:50.564Z,5.55
2023-08-24T01:22:29.081Z,5.10
2023-08-24T01:25:01.263Z,5.25
2023-08-24T01:27:28.993Z,5.07
2023-08-24T01:29:58.002Z,5.47
2023-08-24T01:32:24.416Z,5.45
2023-08-24T01:34:50.780Z,5.25
2023-08-24T01:37:17.686Z,5.15
2023-08-24T01:39:49.199Z,6.22
2023-08-24T01:42:19.869Z,6.32
2023-08-24T01:44:48.677Z,5.53
2023-08-24T01:47:15.059Z,5.25
2023-08-24T01:49:41.557Z,5.05
2023-08-24T01:52:09.568Z,6.10
2023-08-24T01:54:36.055Z,6.47
2023-08-24T01:57:02.619Z,6.00
2023-08-24T01:59:29.029Z,5.45
2023-08-24T02:01:55.445Z,5.50
2023-08-24T02:04:21.741Z,5.88
2023-08-24T02:06:48.028Z,5.35
2023-08-24T02:09:14.333Z,6.32
2023-08-24T02:11:40.775Z,6.22
2023-08-24T02:14:07.092Z,6.13
2023-08-24T02:16:34.413Z,6.50
2023-08-24T02:19:00.858Z,7.00
2023-08-24T02:21:27.190Z,6.88
2023-08-24T02:23:53.892Z,6.55
2023-08-24T02:26:21.642Z,6.78
2023-08-24T02:28:48.021Z,6.32
2023-08-24T02:31:14.390Z,6.60
2023-08-24T02:33:40.772Z,7.47
2023-08-24T02:36:07.485Z,6.35
2023-08-24T02:38:33.944Z,6.72
2023-08-24T02:41:03.971Z,7.03
2023-08-24T02:43:30.289Z,6.75
2023-08-24T02:46:00.643Z,6.88
2023-08-24T02:48:27.446Z,6.60
2023-08-24T02:50:53.956Z,7.50
2023-08-24T02:53:20.244Z,7.05
2023-08-24T02:55:46.554Z,8.38
2023-08-24T02:58:12.837Z,8.18
2023-08-24T03:00:39.546Z,7.90
2023-08-24T03:03:07.032Z,7.75
2023-08-24T03:05:33.473Z,9.32
2023-08-24T03:08:00.284Z,8.45
2023-08-24T03:10:26.607Z,7.97
2023-08-24T03:12:53.148Z,8.00
2023-08-24T03:15:19.552Z,9.02
2023-08-24T03:17:45.902Z,8.20
2023-08-24T03:20:12.295Z,8.50
2023-08-24T03:22:39.054Z,8.50
2023-08-24T03:25:05.790Z,7.82
2023-08-24T03:27:32.112Z,8.30
2023-08-24T03:29:58.796Z,8.20
2023-08-24T03:32:25.153Z,8.63
2023-08-24T03:34:51.545Z,8.68
2023-08-24T03:37:17.876Z,9.05
2023-08-24T03:39:44.293Z,8.57
2023-08-24T03:42:10.717Z,8.90
2023-08-24T03:44:37.241Z,9.45
2023-08-24T03:47:03.913Z,8.73
2023-08-24T03:49:30.225Z,8.80
2023-08-24T03:51:56.510Z,8.63
2023-08-24T03:54:24.215Z,9.52
2023-08-24T03:56:50.575Z,9.23
2023-08-24T03:59:17.015Z,9.32
2023-08-24T04:01:43.354Z,10.02
2023-08-24T04:04:09.721Z,10.18
2023-08-24T04:06:37.354Z,9.55
2023-08-24T04:09:03.775Z,9.35
2023-08-24T04:11:30.178Z,9.02
2023-08-24T04:13:56.527Z,8.77
2023-08-24T04:16:22.815Z,8.65
2023-08-24T04:18:49.136Z,8.73
2023-08-24T04:21:15.501Z,9.95
2023-08-24T04:23:46.080Z,9.43
2023-08-24T04:26:12.913Z,9.82
2023-08-24T04:28:39.297Z,10.35
2023-08-24T04:31:05.648Z,9.43
2023-08-24T04:33:32.238Z,8.65
2023-08-24T04:35:59.332Z,9.05
2023-08-24T04:38:25.746Z,8.60
2023-08-24T04:40:53.312Z,8.68
2023-08-24T04:43:20.226Z,9.10
2023-08-24T04:45:47.117Z,9.48
2023-08-24T04:48:13.516Z,8.82
2023-08-24T04:50:40.165Z,9.38
2023-08-24T04:53:07.040Z,9.07
2023-08-24T04:55:33.366Z,8.80
2023-08-24T04:57:59.667Z,9.18
2023-08-24T05:00:26.798Z,9.68
2023-08-24T05:02:53.190Z,10.30
2023-08-24T05:05:19.682Z,10.70
2023-08-24T05:07:46.022Z,9.55
2023-08-24T05:10:12.406Z,10.20
2023-08-24T05:12:38.782Z,8.98
2023-08-24T05:15:05.817Z,9.18
2023-08-24T05:17:33.096Z,9.27
2023-08-24T05:19:59.836Z,9.02
2023-08-24T05:22:26.220Z,9.73
2023-08-24T05:24:52.587Z,10.38
2023-08-24T05:27:18.934Z,9.75
2023-08-24T05:29:45.281Z,9.40
2023-08-24T05:32:11.670Z,10.27
2023-08-24T05:34:38.036Z,10.05
2023-08-24T05:37:04.444Z,10.60
2023-08-24T05:39:30.798Z,10.25
2023-08-24T05:41:57.219Z,9.25
2023-08-24T05:44:23.745Z,10.32
2023-08-24T05:46:50.084Z,9.93
2023-08-24T05:49:16.496Z,10.38
2023-08-24T05:51:42.879Z,10.15
2023-08-24T05:54:09.159Z,10.02
2023-08-24T05:56:35.499Z,9.63
2023-08-24T05:59:03.621Z,9.68
2023-08-24T06:01:31.808Z,9.80
2023-08-24T06:03:58.173Z,10.10
2023-08-24T06:06:24.540Z,10.18
2023-08-24T06:08:50.837Z,10.15
2023-08-24T06:11:17.195Z,9.75
2023-08-24T06:13:43.507Z,9.73
2023-08-24T06:16:09.870Z,8.75
2023-08-24T06:18:36.231Z,9.63
2023-08-24T06:21:02.597Z,9.02
2023-08-24T06:23:28.944Z,10.05
2023-08-24T06:25:55.367Z,9.93
2023-08-24T06:28:21.689Z,9.55
2023-08-24T06:30:48.935Z,9.50
2023-08-24T06:33:17.765Z,10.02
2023-08-24T06:35:44.165Z,9.82
2023-08-24T06:38:10.559Z,10.05
2023-08-24T06:40:36.945Z,10.27
2023-08-24T06:43:03.381Z,9.98
2023-08-24T06:45:29.829Z,9.98
2023-08-24T06:47:56.203Z,10.27
2023-08-24T06:50:22.679Z,10.23
2023-08-24T06:52:49.366Z,10.10
2023-08-24T06:55:15.778Z,10.77
2023-08-24T06:57:42.079Z,10.35
2023-08-24T07:00:10.357Z,10.20
2023-08-24T07:02:37.648Z,10.65
2023-08-24T07:05:06.133Z,10.65
2023-08-24T07:07:32.539Z,10.90
2023-08-24T07:09:58.848Z,10.43
2023-08-24T07:12:25.219Z,11.25
2023-08-24T07:14:51.571Z,10.77
2023-08-24T07:17:17.948Z,11.10
2023-08-24T07:19:44.316Z,10.68
2023-08-24T07:22:10.691Z,11.20
2023-08-24T07:24:45.181Z,10.70
2023-08-24T07:27:12.600Z,11.10
2023-08-24T07:29:39.044Z,11.05
2023-08-24T07:32:05.506Z,11.07
2023-08-24T07:34:31.954Z,10.45
2023-08-24T07:36:58.323Z,10.98
2023-08-24T07:39:24.697Z,11.48
2023-08-24T07:41:51.095Z,10.30
2023-08-24T07:44:17.568Z,10.38
2023-08-24T07:46:43.948Z,10.30
2023-08-24T07:49:10.257Z,11.90
2023-08-24T07:51:36.830Z,11.30
2023-08-24T07:54:05.405Z,11.23
2023-08-24T07:56:31.765Z,10.68
2023-08-24T07:58:58.178Z,11.02
2023-08-24T08:01:24.600Z,11.23
2023-08-24T08:03:51.100Z,11.02
2023-08-24T08:06:17.441Z,9.35
2023-08-24T08:08:45.659Z,9.98
2023-08-24T08:11:11.977Z,10.10
2023-08-24T08:13:38.304Z,9.82
2023-08-24T08:16:04.975Z,10.32
2023-08-24T08:18:32.536Z,10.05
2023-08-24T08:20:58.939Z,9.38
2023-08-24T08:23:25.380Z,9.35
2023-08-24T08:25:51.850Z,8.93
2023-08-24T08:28:21.319Z,9.48
2023-08-24T08:30:49.455Z,9.43
2023-08-24T08:33:15.842Z,9.25
2023-08-24T08:35:42.362Z,9.02
2023-08-24T08:38:08.825Z,9.48
2023-08-24T08:40:37.965Z,8.27
2023-08-24T08:43:04.396Z,8.02
2023-08-24T08:45:30.720Z,8.25
2023-08-24T08:47:58.591Z,10.18
2023-08-24T08:50:25.762Z,8.80
2023-08-24T08:52:52.381Z,8.85
2023-08-24T08:55:20.037Z,8.32
2023-08-24T08:57:49.642Z,7.80
2023-08-24T09:00:17.831Z,7.85
2023-08-24T09:02:46.320Z,7.93
2023-08-24T09:05:13.418Z,7.97
2023-08-24T09:07:43.065Z,7.40
2023-08-24T09:10:09.627Z,8.85
2023-08-24T09:12:36.253Z,8.90
2023-08-24T09:15:07.238Z,7.88
2023-08-24T09:17:34.597Z,7.97
2023-08-24T09:20:01.477Z,8.30
2023-08-24T09:22:27.817Z,7.97
2023-08-24T09:24:55.556Z,6.22
2023-08-24T09:27:22.666Z,7.45
2023-08-24T09:29:53.045Z,8.32
2023-08-24T09:32:23.522Z,7.80
2023-08-24T09:34:50.067Z,8.43
2023-08-24T09:37:16.654Z,8.23
2023-08-24T09:39:43.524Z,8.18
2023-08-24T09:42:10.010Z,8.38
2023-08-24T09:44:36.394Z,7.80
2023-08-24T09:47:02.864Z,9.07
2023-08-24T09:49:29.633Z,8.75
2023-08-24T09:51:57.880Z,8.05
2023-08-24T09:54:27.563Z,8.23
2023-08-24T09:56:55.697Z,8.65
2023-08-24T09:59:25.688Z,8.88
2023-08-24T10:01:52.742Z,7.78
2023-08-24T10:04:22.690Z,8.75
2023-08-24T10:06:52.188Z,8.40
2023-08-24T10:09:32.226Z,7.93
2023-08-24T10:12:00.141Z,8.27
2023-08-24T10:14:26.639Z,8.73
2023-08-24T10:16:53.623Z,8.95
2023-08-24T10:19:21.150Z,9.75
2023-08-24T10:21:47.786Z,10.52
2023-08-24T10:24:15.746Z,10.15
2023-08-24T10:26:42.498Z,9.48
2023-08-24T10:29:08.883Z,10.35
2023-08-24T10:31:35.648Z,10.27
2023-08-24T10:34:02.779Z,10.80
2023-08-24T10:36:30.081Z,11.50
2023-08-24T10:38:57.261Z,11.77
2023-08-24T10:41:27.265Z,11.18
2023-08-24T10:43:54.306Z,10.55
2023-08-24T10:46:23.226Z,11.23
2023-08-24T10:48:50.421Z,11.00
2023-08-24T10:51:30.069Z,10.68
2023-08-24T10:53:56.829Z,10.95
2023-08-24T10:56:30.365Z,10.55
2023-08-24T10:59:12.016Z,10.15
2023-08-24T11:01:42.268Z,10.50
2023-08-24T11:04:11.673Z,9.73
2023-08-24T11:06:54.709Z,10.02
2023-08-24T11:09:21.347Z,10.93
2023-08-24T11:11:58.806Z,10.63
2023-08-24T11:14:27.585Z,10.48
2023-08-24T11:16:54.702Z,10.43
2023-08-24T11:19:21.229Z,10.48
2023-08-24T11:21:47.659Z,10.23
2023-08-24T11:24:15.070Z,10.73
2023-08-24T11:26:42.842Z,10.95
2023-08-24T11:29:09.411Z,10.75
2023-08-24T11:31:36.674Z,9.88
2023-08-24T11:34:04.167Z,11.57
2023-08-24T11:36:30.816Z,12.15
2023-08-24T11:39:00.779Z,11.48
2023-08-24T11:44:06.303Z,12.27
2023-08-24T11:46:38.228Z,11.85
2023-08-24T11:49:07.717Z,11.57
2023-08-24T11:51:43.266Z,12.10
2023-08-24T11:54:10.540Z,11.82
2023-08-24T11:56:43.207Z,12.63
2023-08-24T11:59:13.493Z,12.60
2023-08-24T12:01:40.418Z,12.55
2023-08-24T12:04:07.022Z,11.30
2023-08-24T12:06:33.730Z,12.60
2023-08-24T12:09:00.109Z,12.18
2023-08-24T12:11:27.909Z,12.23
2023-08-24T12:13:54.753Z,11.23
2023-08-24T12:16:22.020Z,12.48
2023-08-24T12:18:49.700Z,12.05
2023-08-24T12:21:16.154Z,11.73
2023-08-24T12:23:42.685Z,12.10
2023-08-24T12:26:09.156Z,12.48
2023-08-24T12:28:36.606Z,11.55
2023-08-24T12:31:04.419Z,12.15
2023-08-24T12:33:32.315Z,13.05
2023-08-24T12:35:59.865Z,11.90
2023-08-24T12:38:27.089Z,12.77
2023-08-24T12:40:53.939Z,13.43
2023-08-24T12:43:20.433Z,12.93
2023-08-24T12:45:46.942Z,12.85
2023-08-24T12:48:13.329Z,12.27
2023-08-24T12:50:39.791Z,12.23
2023-08-24T12:53:07.339Z,12.77
2023-08-24T12:55:34.551Z,12.48
2023-08-24T12:58:00.927Z,11.95
2023-08-24T13:00:28.702Z,11.35
2023-08-24T13:02:56.622Z,10.95
2023-08-24T13:05:23.552Z,11.27
2023-08-24T13:07:50.415Z,10.07
2023-08-24T13:10:17.275Z,11.13
2023-08-24T13:12:43.589Z,8.70
2023-08-24T13:15:10.909Z,9.50
2023-08-24T13:17:37.249Z,9.18
2023-08-24T13:20:04.244Z,8.93
2023-08-24T13:22:30.624Z,9.80
2023-08-24T13:24:58.138Z,8.43
2023-08-24T13:27:24.494Z,8.18
2023-08-24T13:29:50.840Z,8.68
2023-08-24T13:32:17.250Z,7.38
2023-08-24T13:34:44.150Z,7.75
2023-08-24T13:37:10.422Z,9.10
2023-08-24T13:39:36.790Z,10.02
2023-08-24T13:42:03.390Z,9.23
2023-08-24T13:44:29.990Z,8.75
2023-08-24T13:46:56.386Z,7.90
2023-08-24T13:49:39.234Z,9.27
2023-08-24T13:52:07.460Z,11.07
2023-08-24T13:54:33.854Z,11.75
2023-08-24T13:57:01.645Z,10.93
2023-08-24T13:59:28.247Z,11.43
2023-08-24T14:01:54.619Z,11.63
2023-08-24T14:04:21.019Z,11.82
2023-08-24T14:06:49.427Z,13.65
2023-08-24T14:09:15.998Z,12.80
2023-08-24T14:11:42.522Z,12.90
2023-08-24T14:14:09.056Z,14.35
2023-08-24T14:16:35.614Z,13.95
2023-08-24T14:19:03.279Z,14.48
2023-08-24T14:21:44.375Z,14.88
2023-08-24T14:24:11.477Z,15.43
2023-08-24T14:26:40.265Z,15.55
2023-08-24T14:29:06.617Z,16.10
2023-08-24T14:31:33.036Z,13.85
2023-08-24T14:33:59.387Z,14.05
2023-08-24T14:36:25.732Z,13.35
2023-08-24T14:38:55.052Z,14.00
2023-08-24T14:41:21.653Z,13.27
2023-08-24T14:43:48.256Z,13.10
2023-08-24T14:46:15.019Z,12.40
2023-08-24T14:48:41.576Z,12.38
2023-08-24T14:51:08.196Z,12.18
2023-08-24T14:53:34.630Z,12.45
2023-08-24T14:56:00.989Z,11.35
2023-08-24T14:58:27.738Z,11.90
2023-08-24T15:00:55.936Z,10.90
2023-08-24T15:03:22.578Z,10.70
2023-08-24T15:05:59.485Z,10.60
2023-08-24T15:08:25.849Z,10.30
2023-08-24T15:10:52.414Z,9.68
2023-08-24T15:13:18.746Z,9.60
2023-08-24T15:15:45.231Z,10.13
2023-08-24T15:18:11.855Z,9.30
2023-08-24T15:20:38.402Z,9.38
2023-08-24T15:23:04.783Z,9.00
2023-08-24T15:25:31.182Z,9.38
2023-08-24T15:27:57.592Z,8.73
2023-08-24T15:30:24.830Z,9.80
2023-08-24T15:32:51.272Z,8.23
2023-08-24T15:35:17.673Z,9.38
2023-08-24T15:37:44.690Z,8.90
2023-08-24T15:40:11.564Z,7.75
2023-08-24T15:42:37.999Z,7.40
2023-08-24T15:45:04.495Z,7.45
2023-08-24T15:47:30.851Z,7.20
2023-08-24T15:49:57.228Z,7.00
2023-08-24T15:52:23.566Z,5.82
2023-08-24T15:54:52.237Z,4.30
2023-08-24T15:57:18.681Z,4.47
2023-08-24T15:59:45.149Z,4.45
2023-08-24T16:02:11.487Z,4.28
2023-08-24T16:04:37.837Z,4.10
2023-08-24T16:07:04.200Z,4.03
2023-08-24T16:09:30.612Z,4.53
2023-08-24T16:11:56.904Z,3.97
2023-08-24T16:14:23.263Z,4.55
2023-08-24T16:16:49.671Z,3.63
2023-08-24T16:19:16.586Z,3.83
2023-08-24T16:21:43.856Z,4.35
2023-08-24T16:24:10.969Z,3.88
2023-08-24T16:26:37.383Z,3.58
2023-08-24T16:29:03.912Z,4.13
2023-08-24T16:31:32.709Z,3.65
2023-08-24T16:33:59.464Z,4.10
2023-08-24T16:36:26.478Z,4.00
2023-08-24T16:38:52.861Z,3.85
2023-08-24T16:41:19.332Z,3.85
2023-08-24T16:43:45.693Z,3.67
2023-08-24T16:46:12.128Z,3.30
2023-08-24T16:48:38.541Z,3.30
2023-08-24T16:51:04.844Z,3.38
2023-08-24T16:53:31.164Z,3.55
2023-08-24T16:55:57.498Z,3.17
2023-08-24T16:58:23.860Z,3.10
2023-08-24T17:00:50.186Z,3.10
2023-08-24T17:03:16.580Z,3.13
2023-08-24T17:05:42.989Z,3.38
2023-08-24T17:08:09.931Z,3.30
2023-08-24T17:10:37.530Z,3.70
2023-08-24T17:13:03.993Z,4.22
2023-08-24T17:15:30.395Z,3.70
2023-08-24T17:17:57.595Z,3.28
2023-08-24T17:20:24.061Z,3.67
2023-08-24T17:22:50.459Z,3.35
2023-08-24T17:25:16.822Z,2.78
2023-08-24T17:27:43.141Z,3.65
2023-08-24T17:30:09.652Z,3.45
2023-08-24T17:32:36.118Z,2.90
2023-08-24T17:35:02.588Z,3.60
2023-08-24T17:37:28.970Z,3.33
2023-08-24T17:39:55.319Z,3.15
2023-08-24T17:42:21.651Z,3.45
2023-08-24T17:44:47.976Z,3.20
2023-08-24T17:47:14.278Z,3.40
2023-08-24T17:49:41.601Z,3.42
2023-08-24T17:52:08.048Z,3.13
2023-08-24T17:54:34.619Z,3.00
2023-08-24T17:57:01.344Z,3.15
2023-08-24T17:59:27.691Z,3.10
2023-08-24T18:01:54.091Z,3.70
2023-08-24T18:04:20.501Z,3.22
2023-08-24T18:06:46.892Z,3.08
2023-08-24T18:09:13.191Z,3.45
2023-08-24T18:11:39.619Z,3.30
2023-08-24T18:14:05.964Z,4.10
2023-08-24T18:16:33.090Z,3.10
2023-08-24T18:18:59.455Z,3.08
2023-08-24T18:21:25.953Z,3.08
2023-08-24T18:23:52.368Z,2.85
2023-08-24T18:26:18.754Z,2.90
2023-08-24T18:28:45.100Z,2.97
2023-08-24T18:31:11.447Z,2.95
2023-08-24T18:33:37.721Z,2.88
2023-08-24T18:36:04.262Z,3.08
2023-08-24T18:38:30.554Z,3.50
2023-08-24T18:40:56.921Z,3.08
2023-08-24T18:43:25.370Z,3.05
2023-08-24T18:45:58.011Z,3.10
2023-08-24T18:48:24.991Z,3.38
2023-08-24T18:50:52.408Z,3.17
2023-08-24T18:53:18.852Z,3.10
2023-08-24T18:55:45.173Z,2.90
2023-08-24T18:58:11.580Z,2.88
2023-08-24T19:00:38.296Z,3.38
2023-08-24T19:03:05.278Z,3.33
2023-08-24T19:05:33.484Z,2.80
2023-08-24T19:07:59.970Z,3.10
2023-08-24T19:10:26.372Z,3.00
2023-08-24T19:12:52.809Z,3.13
2023-08-24T19:15:19.191Z,2.90
2023-08-24T19:17:45.577Z,3.60
2023-08-24T19:20:12.094Z,3.42
2023-08-24T19:22:38.600Z,3.58
2023-08-24T19:25:06.502Z,3.70
2023-08-24T19:27:33.198Z,3.90
2023-08-24T19:29:59.725Z,3.63
2023-08-24T19:32:26.128Z,3.58
2023-08-24T19:34:52.593Z,3.30
2023-08-24T19:37:18.965Z,3.05
2023-08-24T19:39:45.272Z,3.22
2023-08-24T19:42:11.638Z,3.72
2023-08-24T19:44:37.962Z,3.75
2023-08-24T19:47:04.320Z,3.90
2023-08-24T19:49:30.654Z,3.80
2023-08-24T19:51:56.982Z,3.83
2023-08-24T19:54:23.336Z,3.95
2023-08-24T19:56:49.680Z,3.85
2023-08-24T19:59:16.051Z,4.10
2023-08-24T20:01:42.553Z,4.10
2023-08-24T20:04:08.935Z,4.53
2023-08-24T20:06:35.391Z,4.43
2023-08-24T20:09:01.916Z,4.65
2023-08-24T20:11:31.488Z,5.15
2023-08-24T20:14:00.360Z,4.95
2023-08-24T20:16:27.047Z,5.15
2023-08-24T20:18:53.505Z,5.15
2023-08-24T20:21:20.549Z,4.88
2023-08-24T20:23:46.963Z,4.45
2023-08-24T20:26:14.083Z,4.88
2023-08-24T20:28:41.667Z,4.60
2023-08-24T20:31:08.481Z,4.65
2023-08-24T20:33:35.454Z,4.15
2023-08-24T20:36:02.191Z,5.13
2023-08-24T20:38:28.856Z,4.38
2023-08-24T20:40:56.546Z,5.00
2023-08-24T20:43:23.259Z,5.28
2023-08-24T20:45:50.460Z,4.32
2023-08-24T20:48:17.150Z,4.32
2023-08-24T20:50:43.736Z,5.03
2023-08-24T20:53:10.045Z,5.25
2023-08-24T20:55:36.562Z,5.00
2023-08-24T20:58:03.840Z,5.95
2023-08-24T21:00:30.247Z,5.38
2023-08-24T21:02:56.692Z,5.07
2023-08-24T21:05:23.135Z,5.75
2023-08-24T21:07:49.807Z,5.85
2023-08-24T21:10:16.196Z,5.70
2023-08-24T21:12:42.499Z,5.63
2023-08-24T21:15:09.182Z,6.03
2023-08-24T21:17:35.613Z,5.80
2023-08-24T21:20:01.976Z,5.72
2023-08-24T21:22:28.319Z,5.80
2023-08-24T21:24:54.716Z,6.18
2023-08-24T21:27:21.079Z,6.20
2023-08-24T21:29:47.566Z,6.32
2023-08-24T21:32:13.910Z,5.97
2023-08-24T21:34:40.259Z,6.40
2023-08-24T21:37:06.620Z,6.18
2023-08-24T21:39:32.962Z,6.20
2023-08-24T21:42:00.855Z,8.18
2023-08-24T21:44:27.430Z,6.13
2023-08-24T21:46:53.740Z,6.82
2023-08-24T21:49:20.090Z,6.78
2023-08-24T21:51:46.441Z,6.05
2023-08-24T21:54:12.736Z,5.82
2023-08-24T21:56:39.078Z,6.35
2023-08-24T21:59:05.473Z,6.72
2023-08-24T22:01:32.940Z,7.00
2023-08-24T22:03:59.413Z,6.45
2023-08-24T22:06:25.757Z,6.43
2023-08-24T22:08:52.064Z,6.30
2023-08-24T22:11:18.492Z,5.95
2023-08-24T22:13:44.812Z,6.93
2023-08-24T22:16:11.196Z,6.55
2023-08-24T22:18:37.600Z,7.00
2023-08-24T22:21:04.150Z,6.32
2023-08-24T22:23:30.498Z,6.90
2023-08-24T22:25:56.840Z,7.47
2023-08-24T22:28:23.224Z,7.53
2023-08-24T22:30:51.604Z,7.47
2023-08-24T22:33:18.798Z,8.00
2023-08-24T22:35:45.278Z,7.43
2023-08-24T22:38:11.647Z,7.82
2023-08-24T22:40:37.986Z,8.55
2023-08-24T22:43:04.343Z,7.22
2023-08-24T22:45:38.998Z,7.35
2023-08-24T22:48:05.998Z,7.97
2023-08-24T22:50:32.416Z,8.35
2023-08-24T22:52:58.801Z,8.70
2023-08-24T22:55:25.267Z,8.68
2023-08-24T22:57:51.963Z,9.30
2023-08-24T23:00:18.622Z,8.65
2023-08-24T23:02:45.065Z,9.35
2023-08-24T23:05:11.492Z,8.85
2023-08-24T23:07:37.790Z,9.23
2023-08-24T23:10:07.034Z,9.77
2023-08-24T23:12:33.481Z,9.43
2023-08-24T23:14:59.833Z,9.52
2023-08-24T23:17:26.795Z,9.85
2023-08-24T23:19:53.406Z,10.00
2023-08-24T23:22:19.828Z,10.35
2023-08-24T23:24:51.076Z,9.25
2023-08-24T23:27:18.336Z,9.90
2023-08-24T23:29:44.800Z,9.85
2023-08-24T23:32:11.136Z,10.05
2023-08-24T23:34:37.506Z,10.55
2023-08-24T23:37:03.848Z,11.23
2023-08-24T23:39:30.691Z,10.90
2023-08-24T23:41:57.873Z,12.10
2023-08-24T23:44:24.342Z,11.43
2023-08-24T23:46:51.002Z,12.25
2023-08-24T23:49:17.348Z,12.20
2023-08-24T23:51:43.623Z,12.60
2023-08-24T23:54:10.039Z,12.90
2023-08-24T23:56:36.377Z,12.95
2023-08-24T23:59:03.091Z,13.40
